Vitry en Artois Airfield

LFQS · Pas-de-Calais, Hauts-de-France, 法国

罗盘
风向 的 风向 120° Vitry en Artois Airfield 12/30
风: 4 kt, 2 beaufort

4 kt

改变
0 ft 1.000 2.000 3.000 4.000 5.000
VV 0
METAR LFQQ 092030Z AUTO 12004KT 0750 0650 R26/0800N R08/1000N FG VV/// 01/00 Q1007 BECMG 0300 FZFG

METAR Vitry en Artois Airfield - LFQS

Vitry en Artois Airfield是,法国中的小机场。 该机场有一条跑道: 12/30. 该领域的国际民航组织标志是LFQS.

这份报告是针对2022年12月9日 21:30, 当地时间在Lille-Lesquin Airport进行的。

机场观察

风向为120°,速度为4 kt。

可见度为650 m。 跑道26的能见度为800 m 和 没有趋势。 跑道08的能见度为1.000 m 和 没有趋势。

垂直能见度为0 ft 没有观察到天花板。

当前天气为多雾路段。 温度为1 °C,阵风为-3 °C。 海平面上的气压为1007 hPa (QNH)。

发展趋势

  • 变得

    可变方向的风很小或没有。 可见性变为300 m。 重大天气:冷冻 多雾路段。

白天

今天,太阳从08:35升起,在16:44降落。 这适用于Vitry en Artois Airfield,世界夏令时可能有所不同。 当地时间与世界标准时间之间的时差为+1 小时。 当前,没有夏令时有效。

公司介绍

我们没有关于这个机场的公司信息。

体会

到Vliegles.nl去找飞行课程,跳伞和其他飞行体验。 浏览页面,了解Vitry en Artois Airfield附近所有可用的活动。 你也可以使用搜索功能来寻找你所在地附近的特定飞行课程、跳伞或其他飞行体验。

警示语

垂直能见度为0 ft。
跑道26处的能见度为800 m 和 没有趋势。
跑道08处的能见度为1.000 m 和 没有趋势。

跑道

Id 标题 侧风 逆风 侧风 %
12/30 120°-300° 4 kt 0 %

逆风成分最大的方向会被突出显示,并用于横风计算。 这并不一定意味着这个方向在使用。

乌云

0 ft VV 垂直能见度

温度 & 天气

天气 多雾路段
温度 1 °C
露点 0 °C
相对湿度 93%
风寒 -3 °C
Kp-index 2 (0-9)

白天

日出
08:36 (10:58)
中午
12:39
日落
16:43

小工具

你想在你的网站上有一个关于Vitry en Artois Airfield的当前航空天气(METAR)的小部件吗?

显示HTML代码

我们和第三方通过cookies跟踪您在我们网站上的互联网行为。如果你继续,我们认为你同意我们的饼干政策